createdAt,value
2019-05-18T00:02:22.550Z,96388.24
2019-05-18T00:17:29.495Z,96366.50
2019-05-18T00:32:37.486Z,96350.22
2019-05-18T00:47:45.331Z,96353.77
2019-05-18T01:02:52.485Z,96359.87
2019-05-18T01:18:02.343Z,96377.97
2019-05-18T01:33:09.886Z,96372.94
2019-05-18T01:48:18.327Z,96354.84
2019-05-18T02:03:26.049Z,96361.86
2019-05-18T02:18:33.097Z,96361.34
2019-05-18T02:33:40.961Z,96352.19
2019-05-18T02:48:50.677Z,96339.96
2019-05-18T03:03:57.675Z,96333.11
2019-05-18T03:19:08.949Z,96311.94
2019-05-18T03:34:15.601Z,96331.56
2019-05-18T03:49:27.497Z,96329.55
2019-05-18T04:04:35.052Z,96343.23
2019-05-18T04:19:46.837Z,96355.79
2019-05-18T04:34:52.235Z,96368.58
2019-05-18T04:50:05.649Z,96367.53
2019-05-18T05:05:10.505Z,96360.18
2019-05-18T05:20:20.129Z,96347.77
2019-05-18T05:35:29.765Z,96344.89
2019-05-18T05:50:36.888Z,96323.39
2019-05-18T06:05:43.720Z,96316.95
2019-05-18T06:20:52.111Z,96317.30
2019-05-18T06:35:59.421Z,96315.38
2019-05-18T06:51:07.509Z,96325.81
2019-05-18T07:06:14.028Z,96330.50
2019-05-18T07:21:22.646Z,96340.19
2019-05-18T07:36:29.921Z,96323.73
2019-05-18T07:51:39.098Z,96313.17
2019-05-18T08:06:46.624Z,96312.05
2019-05-18T08:21:54.496Z,96292.76
2019-05-18T08:37:01.701Z,96284.72
2019-05-18T08:52:08.934Z,96285.38
2019-05-18T09:07:16.389Z,96270.73
2019-05-18T09:22:24.300Z,96267.45
2019-05-18T09:37:31.448Z,96260.98
2019-05-18T09:52:45.213Z,96261.72
2019-05-18T10:07:49.416Z,96233.45
2019-05-18T10:23:11.817Z,96233.28
2019-05-18T10:38:05.014Z,96198.48
2019-05-18T10:53:27.442Z,96227.87
2019-05-18T11:08:20.310Z,96217.55
2019-05-18T11:23:42.516Z,96189.88
2019-05-18T11:38:38.805Z,96180.07
2019-05-18T11:53:57.475Z,96162.27
2019-05-18T12:08:58.110Z,96155.66
2019-05-18T12:24:14.763Z,96138.63
2019-05-18T12:39:13.619Z,96143.79
2019-05-18T12:54:29.504Z,96139.89
2019-05-18T13:09:32.983Z,96124.05
2019-05-18T13:24:45.387Z,96117.75
2019-05-18T13:39:54.153Z,96092.70
2019-05-18T13:55:05.184Z,96075.44
2019-05-18T14:10:13.552Z,96064.74
2019-05-18T14:25:24.020Z,96063.77
2019-05-18T14:40:30.947Z,96062.36
2019-05-18T14:55:38.782Z,96061.02
2019-05-18T15:10:45.443Z,96053.61
2019-05-18T15:25:52.659Z,96039.89
2019-05-18T15:40:59.703Z,96022.59
2019-05-18T15:56:06.704Z,95994.25
2019-05-18T16:11:13.436Z,95990.09
2019-05-18T16:26:22.188Z,95992.53
2019-05-18T16:41:29.916Z,96004.88
2019-05-18T16:56:37.680Z,96009.75
2019-05-18T17:11:48.025Z,96011.40
2019-05-18T17:26:56.145Z,96008.16
2019-05-18T17:42:05.410Z,96017.45
2019-05-18T17:57:12.603Z,96005.08
2019-05-18T18:12:19.502Z,96024.73
2019-05-18T18:27:29.613Z,96029.13
2019-05-18T18:42:35.378Z,96035.11
2019-05-18T18:57:42.554Z,96040.00
2019-05-18T19:12:49.591Z,96060.42
2019-05-18T19:27:57.610Z,96088.94
2019-05-18T19:43:04.647Z,96097.63
2019-05-18T19:58:12.768Z,96092.73
2019-05-18T20:13:20.135Z,96097.34
2019-05-18T20:28:29.551Z,96081.08
2019-05-18T20:43:37.431Z,96078.85
2019-05-18T20:58:44.689Z,96075.25
2019-05-18T21:13:51.654Z,96074.05
2019-05-18T21:29:00.975Z,96087.52
2019-05-18T21:44:08.168Z,96086.17
2019-05-18T21:59:15.289Z,96076.53
2019-05-18T22:14:22.284Z,96070.53
2019-05-18T22:29:29.420Z,96094.55
2019-05-18T22:44:36.435Z,96084.09
2019-05-18T22:59:45.722Z,96079.66
2019-05-18T23:14:52.588Z,96069.53
2019-05-18T23:29:59.622Z,96066.50
2019-05-18T23:45:10.258Z,96054.78
